Time;durP1;ratioP1;P1;durP2;ratioP2;P2;SDS_P1;SDS_P2;PMS_P1;PMS_P2;Temp;Humidity;BMP_temperature;BMP_pressure;BME280_temperature;BME280_humidity;BME280_pressure;Samples;Min_cycle;Max_cycle;Signal;HPM_P1;HPM_P2
2022/06/11 00:00:21;;;;;;;;;3.67;3.00;;;;;19.83;100.00;101735.34;5093962;27;46239;-88
2022/06/11 00:05:27;;;;;;;;;3.00;3.00;;;;;19.77;100.00;101736.31;5035827;28;45812;-74
2022/06/11 00:07:52;;;;;;;;;4.67;3.67;;;;;19.76;100.00;101734.63;5017395;28;45688;-74
2022/06/11 00:10:21;;;;;;;;;2.00;2.00;;;;;19.72;100.00;101727.88;5036383;28;48016;-74
2022/06/11 00:12:47;;;;;;;;;3.00;2.00;;;;;19.68;100.00;101732.22;5036943;28;45872;-72
2022/06/11 00:15:12;;;;;;;;;5.00;5.00;;;;;19.66;100.00;101737.19;5038668;28;45494;-73
2022/06/11 00:17:44;;;;;;;;;9.00;6.33;;;;;19.63;100.00;101741.31;5005877;28;45444;-75
2022/06/11 00:20:10;;;;;;;;;3.67;3.00;;;;;19.60;100.00;101729.84;5044083;28;45756;-74
2022/06/11 00:22:35;;;;;;;;;3.00;3.00;;;;;19.57;100.00;101734.78;5040625;28;45295;-74
2022/06/11 00:25:01;;;;;;;;;4.00;4.00;;;;;19.54;100.00;101724.16;5040503;28;45334;-74
2022/06/11 00:27:26;;;;;;;;;4.00;4.00;;;;;19.52;100.00;101734.69;5019286;28;46496;-73
2022/06/11 00:29:52;;;;;;;;;4.67;3.67;;;;;19.48;100.00;101727.06;5039663;28;46006;-75
2022/06/11 00:32:18;;;;;;;;;4.33;3.67;;;;;19.45;100.00;101728.41;5038994;28;45346;-74
2022/06/11 00:34:45;;;;;;;;;5.00;3.67;;;;;19.45;100.00;101733.97;5039551;28;45480;-72
2022/06/11 00:37:13;;;;;;;;;2.00;2.00;;;;;19.41;100.00;101732.75;5020913;28;46934;-74
2022/06/11 00:39:39;;;;;;;;;4.33;3.00;;;;;19.39;100.00;101729.38;5039412;28;46633;-73
2022/06/11 00:42:14;;;;;;;;;5.00;3.00;;;;;19.39;100.00;101732.16;5037223;28;45595;-74
2022/06/11 00:44:40;;;;;;;;;2.33;2.33;;;;;19.37;100.00;101732.41;5038614;28;45529;-74
2022/06/11 00:47:23;;;;;;;;;2.67;2.67;;;;;19.37;100.00;101737.09;5020889;28;45778;-72
2022/06/11 00:49:56;;;;;;;;;4.33;4.33;;;;;19.34;100.00;101735.69;5038963;28;47682;-72
2022/06/11 00:52:33;;;;;;;;;4.00;3.00;;;;;19.33;100.00;101735.94;5041371;28;45531;-73
2022/06/11 00:55:12;;;;;;;;;4.33;3.67;;;;;19.32;100.00;101731.44;5038207;28;45759;-73
2022/06/11 00:57:53;;;;;;;;;5.67;3.00;;;;;19.30;100.00;101739.19;5037763;28;45450;-74
2022/06/11 01:00:29;;;;;;;;;4.00;4.00;;;;;19.29;100.00;101737.50;5038544;28;45462;-74
2022/06/11 01:02:57;;;;;;;;;6.33;5.33;;;;;19.27;100.00;101734.13;5036208;28;45631;-74
2022/06/11 01:05:31;;;;;;;;;5.00;5.00;;;;;19.27;100.00;101739.69;5055426;28;45287;-73
2022/06/11 01:08:16;;;;;;;;;2.67;2.67;;;;;19.23;100.00;101731.78;5063840;28;45508;-73
2022/06/11 01:11:07;;;;;;;;;8.00;4.00;;;;;19.22;100.00;101732.91;5057145;28;46496;-72
2022/06/11 01:13:38;;;;;;;;;4.00;4.00;;;;;19.21;100.00;101739.53;5057894;28;45424;-71
2022/06/11 01:16:14;;;;;;;;;4.67;4.67;;;;;19.19;100.00;101733.41;5059408;28;45341;-72
2022/06/11 01:19:00;;;;;;;;;5.33;4.67;;;;;19.17;100.00;101729.16;5069187;28;45356;-72
2022/06/11 01:21:54;;;;;;;;;4.33;3.67;;;;;19.13;100.00;101725.16;5051273;28;47869;-72
2022/06/11 01:24:52;;;;;;;;;3.67;2.67;;;;;19.13;100.00;101726.03;5039925;28;46129;-72
2022/06/11 01:27:36;;;;;;;;;4.67;4.67;;;;;19.14;100.00;101733.25;5049393;28;45395;-73
2022/06/11 01:30:08;;;;;;;;;3.33;3.33;;;;;19.09;100.00;101735.06;5055706;28;45630;-72
2022/06/11 01:32:55;;;;;;;;;3.67;3.67;;;;;19.07;100.00;101726.97;5069921;28;46341;-74
2022/06/11 01:35:36;;;;;;;;;6.67;5.67;;;;;19.04;100.00;101730.22;5053036;28;45456;-72
2022/06/11 01:38:14;;;;;;;;;5.00;3.00;;;;;19.00;100.00;101729.03;5047415;28;45338;-72
2022/06/11 01:40:56;;;;;;;;;6.33;5.00;;;;;19.01;100.00;101739.06;5057864;28;45635;-73
2022/06/11 01:43:39;;;;;;;;;7.00;5.00;;;;;19.00;100.00;101737.38;5068787;28;45689;-73
2022/06/11 01:46:17;;;;;;;;;4.67;4.00;;;;;18.97;100.00;101740.66;5055716;28;45310;-70
2022/06/11 01:49:20;;;;;;;;;6.33;4.00;;;;;18.96;100.00;101731.44;5059059;28;45716;-72
2022/06/11 01:52:13;;;;;;;;;4.00;3.00;;;;;18.93;100.00;101737.47;5043478;28;46269;-71
2022/06/11 01:54:53;;;;;;;;;5.33;5.33;;;;;18.91;100.00;101744.38;5057232;28;45781;-75
2022/06/11 01:57:42;;;;;;;;;5.00;5.00;;;;;18.87;100.00;101744.84;5063751;28;45309;-74
2022/06/11 02:00:14;;;;;;;;;5.67;4.00;;;;;18.85;100.00;101747.03;5058267;28;45375;-71
2022/06/11 02:03:04;;;;;;;;;5.67;4.00;;;;;18.85;100.00;101751.72;5058223;28;45527;-72
2022/06/11 02:05:44;;;;;;;;;6.33;6.33;;;;;18.81;100.00;101756.06;5043513;28;47060;-72
2022/06/11 02:08:28;;;;;;;;;4.00;4.00;;;;;18.81;100.00;101756.06;5034673;28;45514;-72
2022/06/11 02:11:14;;;;;;;;;4.00;3.67;;;;;18.79;100.00;101749.91;5037037;28;45272;-72
2022/06/11 02:13:52;;;;;;;;;4.00;4.00;;;;;18.79;100.00;101752.69;5051198;28;45470;-75
2022/06/11 02:16:32;;;;;;;;;8.33;6.00;;;;;18.77;100.00;101755.69;5036918;28;45542;-73
2022/06/11 02:19:01;;;;;;;;;6.33;4.67;;;;;18.75;100.00;101749.53;5038847;28;45808;-72
2022/06/11 02:21:31;;;;;;;;;5.00;5.00;;;;;18.73;100.00;101748.91;5046475;28;45413;-73
2022/06/11 02:24:09;;;;;;;;;8.00;6.33;;;;;18.72;100.00;101750.00;5053206;28;45369;-73
2022/06/11 02:26:39;;;;;;;;;5.00;5.00;;;;;18.71;100.00;101756.63;5035287;28;45534;-73
2022/06/11 02:29:07;;;;;;;;;5.00;5.00;;;;;18.68;100.00;101755.19;5051346;28;45422;-73
2022/06/11 02:31:39;;;;;;;;;6.67;6.33;;;;;18.65;100.00;101746.47;5041521;28;45470;-71
2022/06/11 02:34:07;;;;;;;;;4.33;3.33;;;;;18.64;100.00;101756.75;5037080;28;45411;-72
2022/06/11 02:36:54;;;;;;;;;4.33;3.67;;;;;18.63;100.00;101755.06;5049070;28;45662;-72
2022/06/11 02:39:21;;;;;;;;;6.00;4.33;;;;;18.61;100.00;101757.22;5025800;28;45476;-71
2022/06/11 02:41:47;;;;;;;;;3.67;3.67;;;;;18.61;100.00;101759.19;5040265;28;45758;-72
2022/06/11 02:44:13;;;;;;;;;5.00;4.00;;;;;18.58;100.00;101768.81;5038626;28;45737;-73
2022/06/11 02:46:41;;;;;;;;;5.67;4.00;;;;;18.58;100.00;101768.81;5019727;28;47241;-72
2022/06/11 02:49:08;;;;;;;;;6.00;4.00;;;;;18.53;100.00;101755.66;5038106;28;45288;-71
2022/06/11 02:51:34;;;;;;;;;4.00;4.00;;;;;18.53;100.00;101768.66;5021442;28;45644;-72
2022/06/11 02:54:00;;;;;;;;;4.00;4.00;;;;;18.51;100.00;101762.53;5040939;28;45377;-72
2022/06/11 02:56:27;;;;;;;;;3.67;3.67;;;;;18.51;100.00;101774.47;5043884;28;45729;-70
2022/06/11 02:58:52;;;;;;;;;6.67;6.67;;;;;18.51;100.00;101774.47;5037328;28;45364;-72
2022/06/11 03:01:20;;;;;;;;;5.00;5.00;;;;;18.50;100.00;101778.34;5026141;28;45457;-71
2022/06/11 03:03:48;;;;;;;;;8.67;8.33;;;;;18.50;100.00;101783.91;5032968;28;45342;-71
2022/06/11 03:06:14;;;;;;;;;6.00;5.33;;;;;18.44;100.00;101779.31;5051961;28;47218;-72
2022/06/11 03:08:41;;;;;;;;;3.33;3.33;;;;;18.48;100.00;101786.06;5056599;28;45385;-72
2022/06/11 03:11:06;;;;;;;;;3.33;3.33;;;;;18.47;100.00;101791.84;5037214;28;45360;-71
2022/06/11 03:13:32;;;;;;;;;5.00;5.00;;;;;18.46;100.00;101804.06;5049392;28;45752;-71
2022/06/11 03:15:58;;;;;;;;;7.00;5.67;;;;;18.44;100.00;101790.41;5049218;28;46442;-72
2022/06/11 03:18:26;;;;;;;;;7.33;4.67;;;;;18.44;100.00;101793.19;5056181;28;45389;-72
2022/06/11 03:20:53;;;;;;;;;12.00;7.00;;;;;18.43;100.00;101788.72;5044577;28;45404;-72
2022/06/11 03:23:18;;;;;;;;;8.67;6.00;;;;;18.43;100.00;101790.63;5056073;28;45394;-75
2022/06/11 03:25:44;;;;;;;;;5.00;3.67;;;;;18.42;100.00;101792.56;5056317;28;46115;-70
2022/06/11 03:28:16;;;;;;;;;5.00;5.00;;;;;18.40;100.00;101793.88;5040151;28;45743;-72
2022/06/11 03:30:42;;;;;;;;;5.33;5.33;;;;;18.38;100.00;101791.31;5012416;28;45508;-72
2022/06/11 03:33:08;;;;;;;;;6.00;6.00;;;;;18.38;100.00;101802.44;5040848;28;45567;-73
2022/06/11 03:35:34;;;;;;;;;5.00;5.00;;;;;18.36;100.00;101799.06;5049107;28;45383;-71
2022/06/11 03:38:02;;;;;;;;;7.33;4.67;;;;;18.38;100.00;101796.88;5039569;28;45769;-73
2022/06/11 03:40:27;;;;;;;;;6.33;6.00;;;;;18.35;100.00;101797.34;5056113;28;45558;-72
2022/06/11 03:42:53;;;;;;;;;5.33;4.67;;;;;18.37;100.00;101800.75;5048378;28;45642;-73
2022/06/11 03:45:19;;;;;;;;;6.00;5.00;;;;;18.39;100.00;101806.09;5054249;28;46173;-71
2022/06/11 03:47:46;;;;;;;;;7.67;5.67;;;;;18.39;100.00;101814.41;5047915;28;45423;-73
2022/06/11 03:50:22;;;;;;;;;6.33;3.33;;;;;18.29;100.00;101796.38;5044718;28;45397;-73
2022/06/11 03:52:48;;;;;;;;;6.00;4.33;;;;;18.42;100.00;101816.72;5051803;28;45495;-73
2022/06/11 03:55:14;;;;;;;;;8.33;6.67;;;;;18.47;100.00;101823.28;5043935;28;45341;-74
2022/06/11 03:57:40;;;;;;;;;6.67;5.00;;;;;18.55;100.00;101829.56;5050124;28;45650;-74
2022/06/11 04:00:10;;;;;;;;;4.00;4.00;;;;;18.66;100.00;101826.81;5055601;28;45422;-72
2022/06/11 04:02:36;;;;;;;;;7.67;6.33;;;;;18.81;100.00;101822.75;5057476;28;45820;-71
2022/06/11 04:05:04;;;;;;;;;7.00;5.67;;;;;19.04;100.00;101827.53;5063061;28;45453;-73
2022/06/11 04:07:31;;;;;;;;;7.00;6.33;;;;;19.30;100.00;101836.53;5060619;28;45713;-73
2022/06/11 04:09:57;;;;;;;;;6.00;5.00;;;;;19.56;100.00;101830.47;5065629;28;45540;-72
2022/06/11 04:12:23;;;;;;;;;4.33;4.33;;;;;19.86;100.00;101831.44;5060502;28;45695;-72
2022/06/11 04:14:48;;;;;;;;;5.67;5.00;;;;;20.14;100.00;101827.03;5052362;28;48007;-70
2022/06/11 04:17:19;;;;;;;;;8.67;7.33;;;;;20.50;100.00;101820.22;5072543;28;45414;-71
2022/06/11 04:19:48;;;;;;;;;8.00;6.00;;;;;20.96;100.00;101832.25;5061918;28;45404;-73
2022/06/11 04:22:14;;;;;;;;;5.00;4.33;;;;;21.42;100.00;101822.94;5050768;28;46785;-72
2022/06/11 04:24:40;;;;;;;;;7.67;5.33;;;;;21.88;100.00;101825.59;5042656;28;47069;-73
2022/06/11 04:27:09;;;;;;;;;5.33;5.33;;;;;22.34;100.00;101818.66;5066817;28;45338;-74
2022/06/11 04:29:37;;;;;;;;;6.33;6.33;;;;;22.79;100.00;101819.41;5071240;28;45655;-73
2022/06/11 04:32:06;;;;;;;;;8.00;6.67;;;;;23.25;100.00;101813.38;5064008;28;46349;-73
2022/06/11 04:34:32;;;;;;;;;6.00;6.00;;;;;23.69;100.00;101815.91;5053702;28;46255;-74
2022/06/11 04:36:58;;;;;;;;;5.33;4.33;;;;;24.09;100.00;101808.00;5073476;28;45993;-74
2022/06/11 04:39:27;;;;;;;;;4.33;4.33;;;;;24.59;100.00;101811.25;5064397;28;45405;-72
2022/06/11 04:41:53;;;;;;;;;4.00;4.00;;;;;25.10;100.00;101811.28;5070640;28;45863;-74
2022/06/11 04:44:19;;;;;;;;;4.00;4.00;;;;;25.53;100.00;101805.38;5065772;28;46438;-74
2022/06/11 04:46:45;;;;;;;;;6.33;6.33;;;;;26.03;100.00;101800.75;5056563;28;45371;-75
2022/06/11 04:49:11;;;;;;;;;5.00;4.67;;;;;26.49;100.00;101808.06;5054356;28;45583;-72
2022/06/11 04:51:37;;;;;;;;;4.00;4.00;;;;;26.82;100.00;101805.63;5051766;28;45752;-73
2022/06/11 04:54:03;;;;;;;;;6.67;5.33;;;;;27.33;100.00;101800.69;5063157;28;46516;-73
2022/06/11 04:56:29;;;;;;;;;6.00;4.67;;;;;27.89;100.00;101802.03;5062319;28;45377;-74
2022/06/11 04:58:57;;;;;;;;;8.00;8.00;;;;;28.44;100.00;101801.59;5045024;28;45532;-72
2022/06/11 05:01:23;;;;;;;;;9.00;5.00;;;;;28.98;100.00;101803.06;5041546;28;45812;-73
2022/06/11 05:03:48;;;;;;;;;3.25;3.25;;;;;29.53;100.00;101801.53;5056957;28;46275;-73
2022/06/11 05:06:21;;;;;;;;;6.00;5.00;;;;;30.10;100.00;101802.03;5038894;28;45447;-73
2022/06/11 05:08:47;;;;;;;;;4.00;2.75;;;;;30.65;100.00;101802.28;5040630;28;45398;-73
2022/06/11 05:11:12;;;;;;;;;5.00;5.00;;;;;31.12;100.00;101806.50;5039151;28;45561;-73
2022/06/11 05:13:38;;;;;;;;;5.75;5.00;;;;;31.67;100.00;101798.78;5049984;28;46064;-75
2022/06/11 05:16:04;;;;;;;;;6.33;4.00;;;;;32.21;100.00;101802.28;5034676;28;45796;-74
2022/06/11 05:18:31;;;;;;;;;4.50;4.50;;;;;32.41;98.76;101804.84;5035804;28;45722;-72
2022/06/11 05:20:56;;;;;;;;;6.00;6.00;;;;;32.25;98.92;101798.78;5031379;28;45536;-71
2022/06/11 05:23:22;;;;;;;;;6.50;6.25;;;;;32.12;98.83;101804.28;5035149;28;45563;-73
2022/06/11 05:25:48;;;;;;;;;7.75;4.75;;;;;31.74;100.00;101802.00;5036295;28;45420;-73
2022/06/11 05:28:21;;;;;;;;;5.50;5.50;;;;;32.00;98.99;101806.91;5035676;28;45426;-73
2022/06/11 05:30:47;;;;;;;;;3.50;3.50;;;;;32.19;97.60;101792.47;5036913;28;45529;-74
2022/06/11 05:33:15;;;;;;;;;4.75;4.50;;;;;32.08;97.07;101789.03;5038804;28;46134;-76
2022/06/11 05:35:41;;;;;;;;;4.00;4.00;;;;;32.02;98.51;101791.22;5035562;28;45319;-74
2022/06/11 05:38:12;;;;;;;;;5.50;4.00;;;;;32.82;93.77;101795.84;5037004;28;44786;-76
2022/06/11 05:40:41;;;;;;;;;5.00;4.00;;;;;33.39;89.58;101794.72;5042016;28;45328;-76
2022/06/11 05:43:06;;;;;;;;;2.50;2.50;;;;;33.68;87.60;101790.25;5031723;28;46192;-74
2022/06/11 05:45:40;;;;;;;;;2.00;2.00;;;;;34.27;84.08;101792.31;5032995;28;45445;-74
2022/06/11 05:48:08;;;;;;;;;3.75;2.00;;;;;34.03;82.87;101800.63;5018132;28;45692;-74
2022/06/11 05:50:37;;;;;;;;;2.75;2.75;;;;;33.44;85.29;101799.41;5033518;28;45643;-74
2022/06/11 05:53:04;;;;;;;;;3.25;3.25;;;;;32.91;87.06;101790.97;5027576;28;46435;-73
2022/06/11 05:55:34;;;;;;;;;4.50;4.50;;;;;32.43;89.36;101796.81;5039461;28;45894;-75
2022/06/11 05:58:03;;;;;;;;;4.00;3.00;;;;;32.09;89.93;101798.41;5034381;28;45669;-74
2022/06/11 06:00:29;;;;;;;;;3.50;3.50;;;;;31.74;91.97;101799.16;5039997;28;45848;-75
2022/06/11 06:02:55;;;;;;;;;2.75;2.00;;;;;31.41;93.55;101799.47;5028555;28;45634;-73
2022/06/11 06:05:25;;;;;;;;;4.00;4.00;;;;;31.16;95.25;101813.16;5033396;28;45324;-75
2022/06/11 06:07:50;;;;;;;;;3.50;3.00;;;;;30.99;96.00;101798.91;5033076;28;45744;-77
2022/06/11 06:10:15;;;;;;;;;4.25;3.25;;;;;30.91;96.04;101800.47;5034084;28;45414;-76
2022/06/11 06:12:41;;;;;;;;;2.50;2.50;;;;;30.87;97.58;101812.75;5031751;28;45717;-75
2022/06/11 06:15:11;;;;;;;;;7.75;4.00;;;;;30.74;98.38;101806.84;5035920;28;45786;-75
2022/06/11 06:17:37;;;;;;;;;2.50;2.50;;;;;30.77;98.33;101811.88;5036121;28;45778;-74
2022/06/11 06:20:05;;;;;;;;;3.00;3.00;;;;;30.77;98.56;101806.19;5010184;28;45665;-73
2022/06/11 06:22:31;;;;;;;;;3.00;3.00;;;;;30.70;98.93;101804.97;5023352;28;46442;-74
2022/06/11 06:24:57;;;;;;;;;2.50;2.50;;;;;30.59;99.93;101818.56;5024094;28;45899;-71
2022/06/11 06:27:22;;;;;;;;;3.00;3.00;;;;;30.35;100.00;101807.47;5015413;28;46304;-73
2022/06/11 06:29:48;;;;;;;;;4.25;3.00;;;;;30.13;100.00;101816.72;5023810;28;45870;-74
2022/06/11 06:32:13;;;;;;;;;7.00;3.50;;;;;29.96;100.00;101818.22;5024366;28;46007;-74
2022/06/11 06:34:39;;;;;;;;;4.00;3.00;;;;;29.84;100.00;101815.09;5024881;28;45414;-73
2022/06/11 06:37:04;;;;;;;;;1.75;1.75;;;;;30.18;99.89;101813.78;5027794;28;46081;-75
2022/06/11 06:39:31;;;;;;;;;4.00;3.00;;;;;30.56;96.61;101817.19;5030396;28;45412;-75
2022/06/11 06:41:58;;;;;;;;;2.75;1.25;;;;;31.14;96.60;101811.84;5025582;28;45878;-73
2022/06/11 06:44:24;;;;;;;;;5.00;2.50;;;;;31.29;95.42;101822.75;5025131;28;45765;-73
2022/06/11 06:46:49;;;;;;;;;4.25;3.00;;;;;31.73;93.90;101814.50;5024850;28;45477;-74
2022/06/11 06:49:15;;;;;;;;;5.00;3.00;;;;;32.39;89.12;101817.34;5021636;28;46470;-74
2022/06/11 06:51:40;;;;;;;;;2.00;2.00;;;;;33.83;85.02;101823.03;5025014;28;45921;-73
2022/06/11 06:54:06;;;;;;;;;2.00;2.00;;;;;34.68;79.39;101826.03;5028167;28;45748;-75
2022/06/11 06:56:33;;;;;;;;;2.00;2.00;;;;;34.79;76.52;101828.13;5018521;28;45644;-75
2022/06/11 06:59:02;;;;;;;;;4.50;2.75;;;;;34.58;75.36;101822.41;5021232;28;45786;-73
2022/06/11 07:01:29;;;;;;;;;3.25;3.00;;;;;34.18;76.39;101825.69;5018548;28;46243;-74
2022/06/11 07:03:55;;;;;;;;;4.00;1.00;;;;;33.78;77.12;101823.22;5037548;28;45822;-76
2022/06/11 07:06:21;;;;;;;;;2.75;1.75;;;;;33.38;76.77;101827.19;5050202;28;45512;-76
2022/06/11 07:08:50;;;;;;;;;1.00;1.00;;;;;32.94;78.68;101825.59;5046058;28;45706;-75
2022/06/11 07:11:16;;;;;;;;;2.00;2.00;;;;;32.35;79.26;101830.56;5042673;28;45457;-73
2022/06/11 07:13:41;;;;;;;;;2.00;2.00;;;;;31.63;82.04;101831.78;5032875;28;46120;-73
2022/06/11 07:16:07;;;;;;;;;2.00;2.00;;;;;30.98;84.10;101828.34;5041463;28;45861;-74
2022/06/11 07:18:39;;;;;;;;;2.25;2.25;;;;;30.40;85.85;101830.00;5046006;28;45722;-73
2022/06/11 07:21:13;;;;;;;;;2.00;2.00;;;;;29.82;89.34;101825.84;5044291;28;45632;-74
2022/06/11 07:23:44;;;;;;;;;1.75;1.75;;;;;29.41;91.03;101822.63;5041412;28;45805;-75
2022/06/11 07:26:15;;;;;;;;;1.50;1.50;;;;;29.05;94.34;101820.41;5039663;28;45394;-76
2022/06/11 07:28:54;;;;;;;;;1.25;1.25;;;;;28.86;95.28;101823.31;5042311;28;45829;-75
2022/06/11 07:31:20;;;;;;;;;1.00;1.00;;;;;28.90;97.02;101828.34;5041649;28;45612;-76
2022/06/11 07:33:48;;;;;;;;;3.00;2.00;;;;;28.93;96.87;101833.38;5044005;28;45442;-76
2022/06/11 07:36:14;;;;;;;;;1.75;1.75;;;;;29.60;91.45;101835.88;5039627;27;45924;-76
2022/06/11 07:38:42;;;;;;;;;1.00;1.00;;;;;30.29;87.29;101835.06;5041823;28;45674;-73
2022/06/11 07:41:08;;;;;;;;;1.00;1.00;;;;;30.96;87.20;101831.50;5046676;28;45668;-79
2022/06/11 07:43:34;;;;;;;;;2.00;2.00;;;;;30.90;84.70;101832.81;5044102;28;45825;-76
2022/06/11 07:46:00;;;;;;;;;1.00;1.00;;;;;30.79;84.61;101837.03;5042757;28;45910;-73
2022/06/11 07:48:25;;;;;;;;;1.75;1.75;;;;;30.73;84.21;101836.31;5043484;28;45960;-76
2022/06/11 07:50:52;;;;;;;;;0.00;0.00;;;;;30.53;84.58;101831.16;5051534;28;45823;-72
2022/06/11 07:53:20;;;;;;;;;1.00;1.00;;;;;30.31;86.31;101827.06;5045140;28;46116;-72
2022/06/11 07:55:59;;;;;;;;;6.67;6.67;;;;;30.19;85.98;101823.94;5044194;28;45865;-75
2022/06/11 07:58:28;;;;;;;;;1.25;1.25;;;;;29.96;86.23;101829.53;5039862;28;45461;-68
2022/06/11 08:00:54;;;;;;;;;5.00;2.00;;;;;29.75;88.64;101832.75;5047219;28;46485;-71
2022/06/11 08:03:21;;;;;;;;;1.00;1.00;;;;;29.51;89.51;101824.44;5022515;28;45896;-72
2022/06/11 08:05:47;;;;;;;;;2.00;1.00;;;;;29.38;90.01;101826.09;5035022;28;45746;-70
2022/06/11 08:08:13;;;;;;;;;1.25;0.25;;;;;30.76;87.12;101830.00;5048159;28;46009;-72
2022/06/11 08:10:41;;;;;;;;;1.75;1.75;;;;;32.58;79.84;101823.88;5047975;28;45710;-69
2022/06/11 08:13:08;;;;;;;;;2.25;1.00;;;;;33.98;74.39;101821.59;5047861;28;45500;-70
2022/06/11 08:15:35;;;;;;;;;1.25;1.25;;;;;35.43;68.91;101833.69;5049158;28;45646;-69
2022/06/11 08:18:01;;;;;;;;;2.00;2.00;;;;;36.44;63.52;101820.78;5048448;28;45464;-70
2022/06/11 08:20:29;;;;;;;;;2.00;1.75;;;;;37.57;59.46;101828.50;5049302;28;45844;-69
2022/06/11 08:22:55;;;;;;;;;2.75;2.75;;;;;38.70;54.81;101825.09;5049026;28;46231;-69
2022/06/11 08:25:22;;;;;;;;;1.00;1.00;;;;;40.03;50.98;101821.00;5047927;28;45655;-70
2022/06/11 08:27:47;;;;;;;;;1.75;1.75;;;;;41.28;48.14;101827.59;5042377;28;45374;-70
2022/06/11 08:30:15;;;;;;;;;1.00;0.75;;;;;42.39;43.31;101812.44;5049380;28;45405;-68
2022/06/11 08:32:40;;;;;;;;;3.25;0.00;;;;;43.65;39.45;101833.03;5049597;28;45775;-70
2022/06/11 08:35:07;;;;;;;;;1.50;1.50;;;;;44.72;35.83;101824.56;5046482;28;45648;-68
2022/06/11 08:37:32;;;;;;;;;2.00;2.00;;;;;45.05;32.68;101808.72;5050313;28;46018;-69
2022/06/11 08:39:57;;;;;;;;;4.00;2.00;;;;;45.68;32.14;101819.41;5051545;28;45438;-68
2022/06/11 08:42:36;;;;;;;;;3.00;2.00;;;;;46.65;32.22;101820.47;5053670;28;45346;-68
2022/06/11 08:45:21;;;;;;;;;1.25;1.25;;;;;47.82;30.21;101822.00;5048006;28;45380;-69
2022/06/11 08:48:00;;;;;;;;;3.00;1.50;;;;;48.72;27.25;101813.53;5052864;28;45401;-69
2022/06/11 08:50:39;;;;;;;;;0.00;0.00;;;;;49.43;26.40;101816.06;5051302;28;45816;-70
2022/06/11 08:53:06;;;;;;;;;3.00;3.00;;;;;50.03;25.79;101817.84;5052229;28;45794;-70
2022/06/11 08:55:36;;;;;;;;;1.00;1.00;;;;;50.50;24.30;101799.78;5052926;28;45768;-69
2022/06/11 08:58:06;;;;;;;;;1.00;1.00;;;;;50.74;22.38;101803.25;5050935;28;45421;-69
2022/06/11 09:00:56;;;;;;;;;1.00;1.00;;;;;50.55;22.54;101801.31;5040839;28;46410;-70
2022/06/11 09:03:29;;;;;;;;;2.00;2.00;;;;;50.17;22.61;101805.75;5051074;28;45873;-68
2022/06/11 09:06:15;;;;;;;;;1.33;1.33;;;;;49.74;24.03;101796.09;5050852;28;45827;-69
2022/06/11 09:08:50;;;;;;;;;1.00;1.00;;;;;50.25;23.21;101797.66;5052734;28;45762;-70
2022/06/11 09:11:54;;;;;;;;;2.00;1.00;;;;;50.46;22.58;101791.13;5052137;28;46607;-70
2022/06/11 09:14:19;;;;;;;;;1.00;1.00;;;;;50.25;22.55;101792.63;5034172;28;45719;-70
2022/06/11 09:16:57;;;;;;;;;1.00;1.00;;;;;48.89;23.45;101789.03;5050946;28;46432;-69
2022/06/11 09:19:57;;;;;;;;;2.00;0.67;;;;;47.28;25.93;101782.22;5051385;28;45469;-71
2022/06/11 09:22:41;;;;;;;;;2.67;2.67;;;;;46.62;27.66;101783.59;5048609;28;46332;-70
2022/06/11 09:25:28;;;;;;;;;1.00;1.00;;;;;47.24;26.03;101780.59;5045404;28;45757;-71
2022/06/11 09:28:40;;;;;;;;;1.00;1.00;;;;;48.03;25.72;101785.03;5076763;22;45707;-80
2022/06/11 09:31:38;;;;;;;;;1.00;0.67;;;;;47.20;26.61;101784.38;5049160;28;45896;-83
2022/06/11 09:34:18;;;;;;;;;2.33;2.33;;;;;48.14;25.76;101785.66;5043279;28;46297;-82
2022/06/11 09:36:54;;;;;;;;;3.00;2.00;;;;;48.40;24.39;101762.66;5056038;28;45653;-80
2022/06/11 09:39:40;;;;;;;;;1.67;1.67;;;;;47.83;25.58;101788.72;5055232;28;45105;-81
2022/06/11 09:42:30;;;;;;;;;2.00;2.00;;;;;47.92;26.35;101785.25;5069337;28;45833;-82
2022/06/11 09:45:09;;;;;;;;;1.67;1.00;;;;;47.86;25.79;101787.84;5070323;28;46518;-85
2022/06/11 09:47:49;;;;;;;;;1.33;1.33;;;;;46.82;26.41;101781.66;5046838;28;45833;-82
2022/06/11 09:50:29;;;;;;;;;3.00;3.00;;;;;46.54;27.89;101784.94;5062423;28;45552;-81
2022/06/11 09:53:15;;;;;;;;;1.00;1.00;;;;;45.26;28.51;101780.81;5063925;28;45838;-80
2022/06/11 09:56:10;;;;;;;;;1.67;1.00;;;;;44.36;30.21;101787.94;5044259;28;46040;-81
2022/06/11 09:58:54;;;;;;;;;3.00;1.67;;;;;45.33;28.90;101777.06;5052133;28;45494;-80
2022/06/11 10:01:43;;;;;;;;;2.00;2.00;;;;;46.48;28.31;101787.50;5064116;28;45717;-85
2022/06/11 10:04:20;;;;;;;;;0.33;0.33;;;;;46.08;28.09;101775.53;5062826;28;45690;-82
2022/06/11 10:07:19;;;;;;;;;1.33;1.33;;;;;46.43;27.46;101774.28;5065126;27;45470;-82
2022/06/11 10:10:13;;;;;;;;;2.00;2.00;;;;;45.30;29.40;101784.50;5063852;28;45964;-78
2022/06/11 10:12:43;;;;;;;;;2.00;2.00;;;;;44.29;31.37;101790.00;5062945;28;45579;-82
2022/06/11 10:15:23;;;;;;;;;2.33;2.33;;;;;43.44;33.23;101787.63;5051081;28;46244;-84
2022/06/11 10:18:23;;;;;;;;;2.33;2.33;;;;;42.14;35.87;101786.31;5060282;28;46024;-82
2022/06/11 10:20:54;;;;;;;;;2.67;2.67;;;;;41.29;37.99;101765.06;5060062;28;45470;-83
2022/06/11 10:23:38;;;;;;;;;1.75;1.25;;;;;41.04;40.12;101782.13;5049957;28;45715;-83
2022/06/11 10:26:14;;;;;;;;;5.67;4.00;;;;;40.30;42.75;101789.38;5062883;28;45719;-82
2022/06/11 10:29:05;;;;;;;;;2.00;2.00;;;;;39.37;45.73;101789.50;5041884;28;47862;-82
2022/06/11 10:31:46;;;;;;;;;3.00;2.00;;;;;38.56;48.20;101784.63;5051518;28;45818;-81
2022/06/11 10:34:28;;;;;;;;;2.00;2.00;;;;;37.88;50.75;101779.00;5051338;28;45569;-83
2022/06/11 10:37:20;;;;;;;;;4.75;3.00;;;;;38.56;50.37;101782.56;5026765;28;46091;-83
2022/06/11 10:40:00;;;;;;;;;3.67;3.67;;;;;40.52;44.89;101774.09;5000240;28;47435;-81
2022/06/11 10:42:33;;;;;;;;;2.67;2.67;;;;;41.94;41.38;101777.16;5039108;28;45602;-82
2022/06/11 10:45:00;;;;;;;;;2.33;2.33;;;;;42.67;35.41;101773.44;5040642;28;45759;-82
2022/06/11 10:48:01;;;;;;;;;19.33;15.33;;;;;42.10;37.69;101788.34;5029953;28;46092;-82
2022/06/11 10:50:33;;;;;;;;;2.75;2.75;;;;;41.31;40.39;101779.94;4978541;28;47199;-83
2022/06/11 10:53:20;;;;;;;;;34.00;25.67;;;;;41.04;41.44;101779.25;5024576;28;45745;-83
2022/06/11 10:55:53;;;;;;;;;17.67;16.33;;;;;40.25;41.76;101774.13;5061488;28;45414;-83
2022/06/11 10:58:32;;;;;;;;;39.33;31.67;;;;;39.90;43.51;101769.50;5029304;28;45670;-81
2022/06/11 11:01:02;;;;;;;;;34.33;32.67;;;;;40.75;42.92;101765.34;5047236;28;45810;-81
2022/06/11 11:03:49;;;;;;;;;20.33;17.00;;;;;42.01;40.41;101776.38;5046516;28;45581;-81
2022/06/11 11:06:26;;;;;;;;;9.33;6.33;;;;;42.17;36.59;101776.91;5054932;28;45387;-86
2022/06/11 11:09:07;;;;;;;;;11.00;11.00;;;;;42.22;37.13;101764.16;5066537;28;45386;-87
2022/06/11 11:12:07;;;;;;;;;12.33;11.33;;;;;42.60;34.90;101771.34;5045779;28;45863;-87
2022/06/11 11:14:39;;;;;;;;;14.33;14.33;;;;;43.06;32.74;101761.19;5038669;28;44779;-90
2022/06/11 11:17:14;;;;;;;;;15.00;15.00;;;;;43.38;31.65;101766.97;5028998;28;45804;-88
2022/06/11 11:19:45;;;;;;;;;15.67;15.67;;;;;43.41;31.35;101774.03;5062202;28;45415;-88
2022/06/11 11:22:20;;;;;;;;;6.33;6.33;;;;;42.99;30.52;101770.63;5054935;28;45410;-88
2022/06/11 11:24:51;;;;;;;;;0.00;0.00;;;;;42.78;31.65;101770.59;5065233;28;45506;-89
2022/06/11 11:27:34;;;;;;;;;23.33;23.33;;;;;42.55;33.16;101759.34;5046565;28;45778;-86
2022/06/11 11:30:15;;;;;;;;;19.33;18.00;;;;;42.18;33.54;101764.16;5050081;28;45846;-88
2022/06/11 11:32:43;;;;;;;;;13.00;11.00;;;;;41.59;36.05;101750.56;5045465;28;45924;-88
2022/06/11 11:35:17;;;;;;;;;21.00;19.00;;;;;41.01;35.53;101757.00;5064621;28;45741;-87
2022/06/11 11:37:44;;;;;;;;;10.33;8.00;;;;;40.46;37.61;101758.41;5041722;28;44904;-89
2022/06/11 11:40:35;;;;;;;;;12.00;8.00;;;;;39.83;41.28;101765.69;5061815;28;45242;-87
2022/06/11 11:43:21;;;;;;;;;13.00;12.00;;;;;39.01;43.15;101755.22;5055649;28;45660;-88
2022/06/11 11:45:58;;;;;;;;;22.67;20.33;;;;;38.12;46.22;101757.84;5064598;28;44811;-87